Timeline UpdatesTrip UpdatesNews PostsPvt PostsTravel TipsAdmin PostsConv PostsFollowed PostsChat RequestsBlog PostsPNR Posts

Disclaimer
Search
 
 
Tue Jul 29, 2014 20:17:46 ISTHomeTrainsΣChainsAtlasPNRForumGalleryNewsFAQTripsMembersLoginFeedback
No Recent News for this Train
Other Trains in the News **new
Latest...
Experimental Stop provided at Pudukkad.
Fri Feb 21, 2014 (07:40PM)
⇐ Return Journey: Train# 16650

16649/Parashuram Express

Feb 21 2014 (7:39PM)
Change Departure Station:
Change Arrival Station:
Post a Train Travel TipPost a Train Travel Tip **new
Post a Comment/Question/Picture/VideoPost a Comment/Question/Picture/Video
Pantry/Catering
✓ Pantry Car Avbl
✓ Catering Avbl
RSA - Rake Sharing
Rake/Coach Composition
Loco SLR GS GS GS GS GS GS GS GS GS PC D1 C1 C2 F1 GS GS GS GS SLR
Loco
MAQ-SRR :ERS WDM 3A/ED WDM 3A/D SRR-NCJ: ED/RPM WAP 4
News    PNR    Forum    Time-Table    Availability    Fare Chart    Map    Arr/Dep History    Trips    Gallery    ΣChains    X/O    Timeline    
Travel Time: 3h 32m    12 halts    Distance: 160 km    Avg Speed: 45 km/hr
Type: Mail/Express
Zone: SR/Southern
Departs @ 14:53 (Avg 44m late)
Platform# 1
SMTWTFS
Kottayam/KTYM 
Arrives @ 18:25 (Avg 40m late)
Platform# 5
SMTWTFS
Trivandrum Central/TVC 

12 halts. 29 intermediate Stations between Kottayam and Trivandrum Central

Show ALL intermediate Stations  Show Old Time-Table

#CodeStation NameX/OArrivesAvgDepartsAvgHaltPFDay#KmSpeedElevZoneAddress
1MAQMangalore Central (4)  -04:50+311-471.56114mSRMangalore 575001, Karnataka
2KGQKasaragod (3)X  05:35+505:36+61m--1-425.86918mSRTel: 04994 220800, Kerala
3KZEKanhangad (3)  05:56+905:57+121m--1-402.65615mSRKanhangad, Kerala
4NLENileshwar (2)X  06:07+1306:08+131m--1-393.46012mSRNileswaram, Kerala
5PAYPayyanur (3)  06:28+1106:29+131m--1-373.3640mSRKannur District, Kerala
6PAZPayangadi (2)  06:40+1206:41+121m21-361.76412mSRKannur District, Kerala
7KPQKannapuram (2)X  06:48+1306:49+141m21-354.2339mSRKannur District, Kerala
8CANKannur Main (3)  07:15+307:20+95m31-339.76514mSRKannur Tel: 0497 2705555, Kerala
9TLYThalassery (2)  07:39+1007:40+101m--1-319.0629mSRKannur, Kerala
10MAHEMahe (2)  07:49+1207:50+121m--1-309.86416mSRMahe, Puducherry
11BDJVadakara (2)X  08:02+1108:03+121m11-296.98211mSRCalicut / Station Ph No : 0496-2524254, Kerala
12QLDKoyilandy (3)  08:19+1508:20+161m--1-275.03611mSRQuilandi, Kerala
13CLTKozhikode Main (4)X  09:00+309:05+75m31-250.74311mSRCalicut Tel: 0495 2701234, Kerala
14FKFerok (2)X  09:19+809:20+81m--1-240.75119mSRFeroke, Kerala
15VLIVallikunnu (2)  09:32+409:33+41m--1-230.54313mSRVallikkunnu, Kerala
16PGIParappangadi (2)  09:40+909:41+101m--1-225.56119mSRParappanangadi, Kerala
17TATanur (3)X  09:49+1109:50+111m--1-217.45311mSRMalappuram, Kerala
18TIRTirur (3)  09:59+1010:00+111m21-209.4489mSRTel: 0494 2422240, Kerala
19KTUKuttippuram (2)  10:19+1010:20+111m21-194.47917mSRKuttippuram, Kerala
20PTBPattambi (2)X  10:34+1410:35+141m21-175.92021mSRPattambi, Kerala
21SRRShoranur Junction (7)XO11:10+011:15+125m61-164.35226mSRShoranur ph.no 0466-2222913, Kerala
22WKIWadakkanchery (2)  11:34+2411:35+251m11-147.85840mSRWadackanchery, Kerala
23TCRThrissur (4)X  11:52+2611:54+272m11-131.4586mSRThrissur Tel: 0487 2423150, Kerala
24PUKPudukkad (2)X  12:08+2712:09+281m--1-117.96111mSRPudukad, Kerala
25IJKIrinjalakkuda (2)  12:19+3012:20+301m21-107.74818mSRKalletumkara, Kerala
26CKIChalakkudy (3)  12:28+2912:29+301m11-101.2339mSRPh: 0480- 2701368, Kerala
27DINRDivine Nagar (2)X  12:33+2012:34+201m11-99.07816mSRThrissur, Kerala
28AFKAngamaly for Kalady (3)  12:44+3412:45+351m21-86.03716mSRPhone: 0484-2452340, Kerala
29AWYAluva (3)X  13:00+3013:02+302m11-76.83112mSRPh: 0484-2624141, Kerala
30ERNErnakulam Town (North) (2)  13:35+1913:40+185m21-60.0399mSRTel: 0484 2395198, Kerala
31TRTRThrippunithura (2)13:55+2413:56+241m--1-50.3645mSRErnakulam, Kerala
32PVRDPiravom Road  14:14+3214:15+341m11-31.26512mSRKottayam, Kerala
33ETMEttumanur (1)  14:34+4114:35+431m11-10.64228mSRKottayam, Kerala
34KTYM»Kottayam (3)»  14:50+4214:53+443m110.06715mSRTel: 0481 2563535, Kerala
35CGYChanganassery (3)X  15:09+5015:10+521m2117.85211mSRPh: 0481- 2420108, Kerala
36TRVLTiruvalla (2)X  15:19+5315:20+561m1125.73927mSRPh: 0469-2601314, Kerala
37CNGRChengannur (3)  15:34+5415:35+551m1134.8546mSRPh: 0479-2452340, Kerala
38MVLKMavelikara (3)X  15:49+5315:50+541m3147.34613mSRMavelikkara Ph: 0479-2302249, Kerala
39KYJKayamkulam Junction (5)  16:00+5316:02+552m4155.06311mSRAlappuzha Ph;0479-2442042, Kerala
40KPYKarunagappalli (2)X  16:15+5816:16+581m2168.75712mSRKollam Dist, Kerala
41STKTSasthamkotta (2)  16:24+1:0016:25+1:011m1176.3290mSRKollam Dist, Kerala
42QLNKollam Junction (6)X  17:05+4217:10+415m1195.87416mSRKollam 0474-2746194, Kerala
43PVUParavur (3)17:20+4417:21+441m--1108.28418mSRParavoor, Kerala
44VAKVarkala Sivagiri (3)X  17:29+4617:30+471m21119.47252mSREdava Kappil Road, Kerala
45KZKKazhakkuttam (3)X17:53+4917:54+491m--1147.16620mSRKulathoor ► Kazhakootam Road Kazhakootam PO Thiruvananthapuram, Kerala
46TVPThiruvananthapuram Pettah (2)  18:04+1618:05+161m11158.0718mSRTrivandrum Ph: 04712470181, Kerala
47TVC•Trivandrum Central (5)•X  18:25+4018:35+4110m51160.45412mSRThiruvananthapuram 695001, Kerala
48NYYNeyyattinkara  18:54+4818:55+521m--1177.67311mSRThiruvananthapuram, Kerala
49PASAParassalaX  19:04+5719:05+571m--1188.53145mSRParassala, Kerala
50KZTKulitturai  19:24+4919:25+511m--1198.44729mSRMarthandam, Tamil Nadu
51ERLEraniel  19:44+4619:45+461m--1213.22219mSRKanyakumari, Tamil Nadu
52NCJNagercoil Junction (4)  20:35+14---1231.5-22mSRNagercoil-629002, Tamil Nadu
Scroll to Top
Scroll to Bottom